sensor_id;sensor_type;location;lat;lon;timestamp;temperature;humidity
584;HTU21D;27024;54.068;12.116;2023-08-30T00:01:12;13.20;118.99
584;HTU21D;27024;54.068;12.116;2023-08-30T00:03:39;13.17;118.99
584;HTU21D;27024;54.068;12.116;2023-08-30T00:06:06;13.16;118.99
584;HTU21D;27024;54.068;12.116;2023-08-30T00:08:34;13.16;118.99
584;HTU21D;27024;54.068;12.116;2023-08-30T00:11:01;13.16;118.99
584;HTU21D;27024;54.068;12.116;2023-08-30T00:13:30;13.21;118.99
584;HTU21D;27024;54.068;12.116;2023-08-30T00:15:58;13.19;118.99
584;HTU21D;27024;54.068;12.116;2023-08-30T00:18:25;13.17;118.99
584;HTU21D;27024;54.068;12.116;2023-08-30T00:20:52;13.15;118.99
584;HTU21D;27024;54.068;12.116;2023-08-30T00:23:19;13.14;118.99
584;HTU21D;27024;54.068;12.116;2023-08-30T00:25:46;13.10;118.99
584;HTU21D;27024;54.068;12.116;2023-08-30T00:28:13;13.07;118.99
584;HTU21D;27024;54.068;12.116;2023-08-30T00:30:40;13.09;118.99
584;HTU21D;27024;54.068;12.116;2023-08-30T00:33:07;13.06;118.99
584;HTU21D;27024;54.068;12.116;2023-08-30T00:35:34;13.03;118.99
584;HTU21D;27024;54.068;12.116;2023-08-30T00:38:01;13.04;118.99
584;HTU21D;27024;54.068;12.116;2023-08-30T00:40:28;12.96;118.99
584;HTU21D;27024;54.068;12.116;2023-08-30T00:42:56;12.92;118.99
584;HTU21D;27024;54.068;12.116;2023-08-30T00:45:24;12.88;118.99
584;HTU21D;27024;54.068;12.116;2023-08-30T00:47:51;12.85;118.99
584;HTU21D;27024;54.068;12.116;2023-08-30T00:50:18;12.76;118.99
584;HTU21D;27024;54.068;12.116;2023-08-30T00:52:45;12.72;118.99
584;HTU21D;27024;54.068;12.116;2023-08-30T00:55:12;12.66;118.99
584;HTU21D;27024;54.068;12.116;2023-08-30T00:57:39;12.60;118.99
584;HTU21D;27024;54.068;12.116;2023-08-30T01:00:08;12.53;118.99
584;HTU21D;27024;54.068;12.116;2023-08-30T01:02:36;12.52;118.99
584;HTU21D;27024;54.068;12.116;2023-08-30T01:05:03;12.53;118.99
584;HTU21D;27024;54.068;12.116;2023-08-30T01:07:30;12.56;118.99
584;HTU21D;27024;54.068;12.116;2023-08-30T01:09:57;12.46;118.99
584;HTU21D;27024;54.068;12.116;2023-08-30T01:12:33;12.37;118.99
584;HTU21D;27024;54.068;12.116;2023-08-30T01:15:23;12.34;118.99
584;HTU21D;27024;54.068;12.116;2023-08-30T01:17:52;12.29;118.99
584;HTU21D;27024;54.068;12.116;2023-08-30T01:20:21;12.28;118.99
584;HTU21D;27024;54.068;12.116;2023-08-30T01:23:09;12.25;118.99
584;HTU21D;27024;54.068;12.116;2023-08-30T01:26:23;12.13;118.99
584;HTU21D;27024;54.068;12.116;2023-08-30T01:28:52;12.12;118.99
584;HTU21D;27024;54.068;12.116;2023-08-30T01:31:21;12.07;118.99
584;HTU21D;27024;54.068;12.116;2023-08-30T01:33:50;12.07;118.99
584;HTU21D;27024;54.068;12.116;2023-08-30T01:36:18;12.02;118.99
584;HTU21D;27024;54.068;12.116;2023-08-30T01:38:45;11.98;118.99
584;HTU21D;27024;54.068;12.116;2023-08-30T01:41:13;11.92;118.99
584;HTU21D;27024;54.068;12.116;2023-08-30T01:43:42;11.87;118.99
584;HTU21D;27024;54.068;12.116;2023-08-30T01:46:09;11.81;118.99
584;HTU21D;27024;54.068;12.116;2023-08-30T01:48:37;11.77;118.99
584;HTU21D;27024;54.068;12.116;2023-08-30T01:51:06;11.81;118.99
584;HTU21D;27024;54.068;12.116;2023-08-30T01:53:35;11.83;118.99
584;HTU21D;27024;54.068;12.116;2023-08-30T01:56:03;11.88;118.99
584;HTU21D;27024;54.068;12.116;2023-08-30T01:58:30;11.89;118.99
584;HTU21D;27024;54.068;12.116;2023-08-30T02:00:57;11.79;118.99
584;HTU21D;27024;54.068;12.116;2023-08-30T02:03:24;11.78;118.99
584;HTU21D;27024;54.068;12.116;2023-08-30T02:06:03;11.78;118.99
584;HTU21D;27024;54.068;12.116;2023-08-30T02:08:40;11.91;118.99
584;HTU21D;27024;54.068;12.116;2023-08-30T02:11:13;12.02;118.99
584;HTU21D;27024;54.068;12.116;2023-08-30T02:13:41;11.98;118.99
584;HTU21D;27024;54.068;12.116;2023-08-30T02:16:09;12.00;118.99
584;HTU21D;27024;54.068;12.116;2023-08-30T02:18:37;11.92;118.99
584;HTU21D;27024;54.068;12.116;2023-08-30T02:21:04;11.94;118.99
584;HTU21D;27024;54.068;12.116;2023-08-30T02:23:32;11.90;118.99
584;HTU21D;27024;54.068;12.116;2023-08-30T02:25:59;12.10;118.99
584;HTU21D;27024;54.068;12.116;2023-08-30T02:28:26;12.51;118.99
584;HTU21D;27024;54.068;12.116;2023-08-30T02:30:53;12.33;118.99
584;HTU21D;27024;54.068;12.116;2023-08-30T02:33:21;12.19;118.99
584;HTU21D;27024;54.068;12.116;2023-08-30T02:35:49;12.14;118.99
584;HTU21D;27024;54.068;12.116;2023-08-30T02:38:16;12.13;118.99
584;HTU21D;27024;54.068;12.116;2023-08-30T02:40:44;12.08;118.99
584;HTU21D;27024;54.068;12.116;2023-08-30T02:43:10;12.12;118.99
584;HTU21D;27024;54.068;12.116;2023-08-30T02:45:37;12.04;118.99
584;HTU21D;27024;54.068;12.116;2023-08-30T02:48:05;12.12;118.99
584;HTU21D;27024;54.068;12.116;2023-08-30T02:50:32;12.15;118.99
584;HTU21D;27024;54.068;12.116;2023-08-30T02:52:59;12.12;118.99
584;HTU21D;27024;54.068;12.116;2023-08-30T02:55:25;12.11;118.99
584;HTU21D;27024;54.068;12.116;2023-08-30T02:57:52;12.38;118.99
584;HTU21D;27024;54.068;12.116;2023-08-30T03:00:19;12.43;118.99
584;HTU21D;27024;54.068;12.116;2023-08-30T03:02:46;12.19;118.99
584;HTU21D;27024;54.068;12.116;2023-08-30T03:05:13;12.07;118.99
584;HTU21D;27024;54.068;12.116;2023-08-30T03:07:40;12.06;118.99
584;HTU21D;27024;54.068;12.116;2023-08-30T03:10:07;12.04;118.99
584;HTU21D;27024;54.068;12.116;2023-08-30T03:12:34;11.93;118.99
584;HTU21D;27024;54.068;12.116;2023-08-30T03:15:01;11.98;118.99
584;HTU21D;27024;54.068;12.116;2023-08-30T03:17:28;11.92;118.99
584;HTU21D;27024;54.068;12.116;2023-08-30T03:19:58;12.00;118.99
584;HTU21D;27024;54.068;12.116;2023-08-30T03:22:25;12.02;118.99
584;HTU21D;27024;54.068;12.116;2023-08-30T03:24:52;12.02;118.99
584;HTU21D;27024;54.068;12.116;2023-08-30T03:27:19;11.94;118.99
584;HTU21D;27024;54.068;12.116;2023-08-30T03:29:46;11.89;118.99
584;HTU21D;27024;54.068;12.116;2023-08-30T03:32:17;11.92;118.99
584;HTU21D;27024;54.068;12.116;2023-08-30T03:34:44;11.91;118.99
584;HTU21D;27024;54.068;12.116;2023-08-30T03:37:15;11.90;118.99
584;HTU21D;27024;54.068;12.116;2023-08-30T03:39:42;11.99;118.99
584;HTU21D;27024;54.068;12.116;2023-08-30T03:42:09;11.98;118.99
584;HTU21D;27024;54.068;12.116;2023-08-30T03:44:37;11.98;118.99
584;HTU21D;27024;54.068;12.116;2023-08-30T03:47:05;11.92;118.99
584;HTU21D;27024;54.068;12.116;2023-08-30T03:49:32;11.93;118.99
584;HTU21D;27024;54.068;12.116;2023-08-30T03:51:59;12.06;118.99
584;HTU21D;27024;54.068;12.116;2023-08-30T03:54:26;11.98;118.99
584;HTU21D;27024;54.068;12.116;2023-08-30T03:56:53;11.90;118.99
584;HTU21D;27024;54.068;12.116;2023-08-30T03:59:19;11.87;118.99
584;HTU21D;27024;54.068;12.116;2023-08-30T04:01:48;11.83;118.99
584;HTU21D;27024;54.068;12.116;2023-08-30T04:04:15;11.79;118.99
584;HTU21D;27024;54.068;12.116;2023-08-30T04:06:42;11.78;118.99
584;HTU21D;27024;54.068;12.116;2023-08-30T04:09:09;11.81;118.99
584;HTU21D;27024;54.068;12.116;2023-08-30T04:11:37;11.76;118.99
584;HTU21D;27024;54.068;12.116;2023-08-30T04:14:03;11.74;118.99
584;HTU21D;27024;54.068;12.116;2023-08-30T04:16:30;11.68;118.99
584;HTU21D;27024;54.068;12.116;2023-08-30T04:18:57;11.67;118.99
584;HTU21D;27024;54.068;12.116;2023-08-30T04:21:24;11.69;118.99
584;HTU21D;27024;54.068;12.116;2023-08-30T04:23:51;11.64;118.99
584;HTU21D;27024;54.068;12.116;2023-08-30T04:26:18;11.76;118.99
584;HTU21D;27024;54.068;12.116;2023-08-30T04:28:45;11.56;118.99
584;HTU21D;27024;54.068;12.116;2023-08-30T04:31:12;11.60;118.99
584;HTU21D;27024;54.068;12.116;2023-08-30T04:33:39;11.57;118.99
584;HTU21D;27024;54.068;12.116;2023-08-30T04:36:06;11.62;118.99
584;HTU21D;27024;54.068;12.116;2023-08-30T04:38:34;11.63;118.99
584;HTU21D;27024;54.068;12.116;2023-08-30T04:41:11;11.87;118.99
584;HTU21D;27024;54.068;12.116;2023-08-30T04:43:38;11.90;118.99
584;HTU21D;27024;54.068;12.116;2023-08-30T04:46:05;11.76;118.99
584;HTU21D;27024;54.068;12.116;2023-08-30T04:48:31;11.83;118.99
584;HTU21D;27024;54.068;12.116;2023-08-30T04:51:02;11.86;118.99
584;HTU21D;27024;54.068;12.116;2023-08-30T04:53:30;11.98;118.99
584;HTU21D;27024;54.068;12.116;2023-08-30T04:55:57;11.88;118.99
584;HTU21D;27024;54.068;12.116;2023-08-30T04:58:24;11.96;118.99
584;HTU21D;27024;54.068;12.116;2023-08-30T05:00:51;11.94;118.99
584;HTU21D;27024;54.068;12.116;2023-08-30T05:03:18;12.02;118.99
584;HTU21D;27024;54.068;12.116;2023-08-30T05:05:45;12.01;118.99
584;HTU21D;27024;54.068;12.116;2023-08-30T05:08:12;12.03;118.99
584;HTU21D;27024;54.068;12.116;2023-08-30T05:10:39;12.22;118.99
584;HTU21D;27024;54.068;12.116;2023-08-30T05:13:07;12.36;118.99
584;HTU21D;27024;54.068;12.116;2023-08-30T05:15:34;12.42;118.99
584;HTU21D;27024;54.068;12.116;2023-08-30T05:18:00;12.56;118.99
584;HTU21D;27024;54.068;12.116;2023-08-30T05:20:27;12.53;118.99
584;HTU21D;27024;54.068;12.116;2023-08-30T05:22:54;12.49;118.99
584;HTU21D;27024;54.068;12.116;2023-08-30T05:25:21;12.49;118.99
584;HTU21D;27024;54.068;12.116;2023-08-30T05:27:48;12.66;118.99
584;HTU21D;27024;54.068;12.116;2023-08-30T05:30:15;12.76;118.99
584;HTU21D;27024;54.068;12.116;2023-08-30T05:32:43;12.87;118.99
584;HTU21D;27024;54.068;12.116;2023-08-30T05:35:10;12.90;118.99
584;HTU21D;27024;54.068;12.116;2023-08-30T05:37:37;12.92;118.99
584;HTU21D;27024;54.068;12.116;2023-08-30T05:40:04;12.79;118.99
584;HTU21D;27024;54.068;12.116;2023-08-30T05:42:31;13.05;118.99
584;HTU21D;27024;54.068;12.116;2023-08-30T05:44:58;13.08;118.99
584;HTU21D;27024;54.068;12.116;2023-08-30T05:47:25;13.10;118.99
584;HTU21D;27024;54.068;12.116;2023-08-30T05:49:52;13.12;118.99
584;HTU21D;27024;54.068;12.116;2023-08-30T05:52:19;13.18;118.99
584;HTU21D;27024;54.068;12.116;2023-08-30T05:54:46;13.11;118.99
584;HTU21D;27024;54.068;12.116;2023-08-30T05:57:13;13.12;118.99
584;HTU21D;27024;54.068;12.116;2023-08-30T05:59:40;13.22;118.99
584;HTU21D;27024;54.068;12.116;2023-08-30T06:02:07;13.19;118.99
584;HTU21D;27024;54.068;12.116;2023-08-30T06:04:33;13.17;118.99
584;HTU21D;27024;54.068;12.116;2023-08-30T06:07:00;13.41;118.99
584;HTU21D;27024;54.068;12.116;2023-08-30T06:09:27;13.51;118.99
584;HTU21D;27024;54.068;12.116;2023-08-30T06:11:54;13.36;118.99
584;HTU21D;27024;54.068;12.116;2023-08-30T06:14:21;13.36;118.99
584;HTU21D;27024;54.068;12.116;2023-08-30T06:16:48;13.36;118.99
584;HTU21D;27024;54.068;12.116;2023-08-30T06:19:16;13.44;118.99
584;HTU21D;27024;54.068;12.116;2023-08-30T06:21:42;13.30;118.99
584;HTU21D;27024;54.068;12.116;2023-08-30T06:24:10;13.14;118.99
584;HTU21D;27024;54.068;12.116;2023-08-30T06:26:37;13.21;118.99
584;HTU21D;27024;54.068;12.116;2023-08-30T06:29:03;13.29;118.99
584;HTU21D;27024;54.068;12.116;2023-08-30T06:31:31;13.34;118.99
584;HTU21D;27024;54.068;12.116;2023-08-30T06:33:59;13.24;118.99
584;HTU21D;27024;54.068;12.116;2023-08-30T06:36:26;13.33;118.99
584;HTU21D;27024;54.068;12.116;2023-08-30T06:38:53;13.41;118.99
584;HTU21D;27024;54.068;12.116;2023-08-30T06:41:20;13.37;118.99
584;HTU21D;27024;54.068;12.116;2023-08-30T06:43:47;13.47;118.99
584;HTU21D;27024;54.068;12.116;2023-08-30T06:46:14;13.50;118.99
584;HTU21D;27024;54.068;12.116;2023-08-30T06:48:41;13.52;118.99
584;HTU21D;27024;54.068;12.116;2023-08-30T06:51:08;13.62;118.99
584;HTU21D;27024;54.068;12.116;2023-08-30T06:53:35;13.71;118.99
584;HTU21D;27024;54.068;12.116;2023-08-30T06:56:02;13.70;118.99
584;HTU21D;27024;54.068;12.116;2023-08-30T06:58:29;13.67;118.99
584;HTU21D;27024;54.068;12.116;2023-08-30T07:00:58;13.70;118.99
584;HTU21D;27024;54.068;12.116;2023-08-30T07:03:26;14.11;118.99
584;HTU21D;27024;54.068;12.116;2023-08-30T07:05:52;13.89;118.99
584;HTU21D;27024;54.068;12.116;2023-08-30T07:08:20;13.94;118.99
584;HTU21D;27024;54.068;12.116;2023-08-30T07:10:47;14.18;118.99
584;HTU21D;27024;54.068;12.116;2023-08-30T07:13:15;14.11;118.99
584;HTU21D;27024;54.068;12.116;2023-08-30T07:15:42;14.24;118.99
584;HTU21D;27024;54.068;12.116;2023-08-30T07:18:10;14.52;118.99
584;HTU21D;27024;54.068;12.116;2023-08-30T07:20:39;14.80;118.99
584;HTU21D;27024;54.068;12.116;2023-08-30T07:23:06;14.73;118.99
584;HTU21D;27024;54.068;12.116;2023-08-30T07:25:37;14.73;118.99
584;HTU21D;27024;54.068;12.116;2023-08-30T07:28:05;14.87;118.99
584;HTU21D;27024;54.068;12.116;2023-08-30T07:30:33;15.01;118.99
584;HTU21D;27024;54.068;12.116;2023-08-30T07:33:02;15.17;118.99
584;HTU21D;27024;54.068;12.116;2023-08-30T07:35:33;15.40;118.99
584;HTU21D;27024;54.068;12.116;2023-08-30T07:38:00;15.44;118.99
584;HTU21D;27024;54.068;12.116;2023-08-30T07:40:27;15.54;118.99
584;HTU21D;27024;54.068;12.116;2023-08-30T07:42:56;15.71;118.99
584;HTU21D;27024;54.068;12.116;2023-08-30T07:45:26;15.85;118.99
584;HTU21D;27024;54.068;12.116;2023-08-30T07:47:53;15.85;118.99
584;HTU21D;27024;54.068;12.116;2023-08-30T07:50:20;16.11;118.99
584;HTU21D;27024;54.068;12.116;2023-08-30T07:52:47;16.15;118.99
584;HTU21D;27024;54.068;12.116;2023-08-30T07:55:14;16.26;118.99
584;HTU21D;27024;54.068;12.116;2023-08-30T07:57:41;16.36;118.99
584;HTU21D;27024;54.068;12.116;2023-08-30T08:00:09;16.52;118.99
584;HTU21D;27024;54.068;12.116;2023-08-30T08:02:36;16.61;118.99
584;HTU21D;27024;54.068;12.116;2023-08-30T08:05:03;16.86;118.99
584;HTU21D;27024;54.068;12.116;2023-08-30T08:07:30;16.95;118.99
584;HTU21D;27024;54.068;12.116;2023-08-30T08:09:57;17.19;118.99
584;HTU21D;27024;54.068;12.116;2023-08-30T08:12:26;17.26;118.99
584;HTU21D;27024;54.068;12.116;2023-08-30T08:14:53;17.37;118.99
584;HTU21D;27024;54.068;12.116;2023-08-30T08:17:20;17.47;118.99
584;HTU21D;27024;54.068;12.116;2023-08-30T08:19:46;17.50;118.99
584;HTU21D;27024;54.068;12.116;2023-08-30T08:22:13;17.44;118.99
584;HTU21D;27024;54.068;12.116;2023-08-30T08:24:40;17.52;118.99
584;HTU21D;27024;54.068;12.116;2023-08-30T08:27:07;17.60;118.99
584;HTU21D;27024;54.068;12.116;2023-08-30T08:29:34;17.76;118.99
584;HTU21D;27024;54.068;12.116;2023-08-30T08:32:01;17.82;118.99
584;HTU21D;27024;54.068;12.116;2023-08-30T08:34:27;17.94;118.99
584;HTU21D;27024;54.068;12.116;2023-08-30T08:36:54;17.91;118.99
584;HTU21D;27024;54.068;12.116;2023-08-30T08:39:21;17.91;118.99
584;HTU21D;27024;54.068;12.116;2023-08-30T08:41:49;17.93;118.99
584;HTU21D;27024;54.068;12.116;2023-08-30T08:44:20;17.83;118.99
584;HTU21D;27024;54.068;12.116;2023-08-30T08:46:51;18.14;118.99
584;HTU21D;27024;54.068;12.116;2023-08-30T08:49:19;18.12;118.99
584;HTU21D;27024;54.068;12.116;2023-08-30T08:51:46;18.11;118.99
584;HTU21D;27024;54.068;12.116;2023-08-30T08:54:14;18.22;118.99
584;HTU21D;27024;54.068;12.116;2023-08-30T08:56:41;18.22;118.99
584;HTU21D;27024;54.068;12.116;2023-08-30T08:59:08;18.35;118.99
584;HTU21D;27024;54.068;12.116;2023-08-30T09:01:36;18.38;118.99
584;HTU21D;27024;54.068;12.116;2023-08-30T09:04:08;18.64;118.99
584;HTU21D;27024;54.068;12.116;2023-08-30T09:06:36;18.83;118.99
584;HTU21D;27024;54.068;12.116;2023-08-30T09:09:03;18.86;118.99
584;HTU21D;27024;54.068;12.116;2023-08-30T09:11:31;18.96;118.99
584;HTU21D;27024;54.068;12.116;2023-08-30T09:14:16;18.82;118.99
584;HTU21D;27024;54.068;12.116;2023-08-30T09:16:57;18.87;118.99
584;HTU21D;27024;54.068;12.116;2023-08-30T09:19:24;18.76;118.99
584;HTU21D;27024;54.068;12.116;2023-08-30T09:24:20;18.95;118.99
584;HTU21D;27024;54.068;12.116;2023-08-30T09:26:49;19.12;118.99
584;HTU21D;27024;54.068;12.116;2023-08-30T09:29:17;19.00;118.99
584;HTU21D;27024;54.068;12.116;2023-08-30T09:31:45;19.20;118.99
584;HTU21D;27024;54.068;12.116;2023-08-30T09:34:12;19.25;118.99
584;HTU21D;27024;54.068;12.116;2023-08-30T09:36:40;19.31;118.99
584;HTU21D;27024;54.068;12.116;2023-08-30T09:39:09;19.44;118.99
584;HTU21D;27024;54.068;12.116;2023-08-30T09:41:37;19.52;118.99
584;HTU21D;27024;54.068;12.116;2023-08-30T09:44:10;19.79;118.99
584;HTU21D;27024;54.068;12.116;2023-08-30T09:46:49;19.61;118.99
584;HTU21D;27024;54.068;12.116;2023-08-30T09:49:19;19.97;118.99
584;HTU21D;27024;54.068;12.116;2023-08-30T09:51:51;19.94;118.99
584;HTU21D;27024;54.068;12.116;2023-08-30T09:54:26;20.83;118.99
584;HTU21D;27024;54.068;12.116;2023-08-30T09:57:05;21.47;118.99
584;HTU21D;27024;54.068;12.116;2023-08-30T09:59:32;21.95;118.99
584;HTU21D;27024;54.068;12.116;2023-08-30T10:02:00;22.23;118.99
584;HTU21D;27024;54.068;12.116;2023-08-30T10:04:28;22.35;118.99
584;HTU21D;27024;54.068;12.116;2023-08-30T10:06:56;22.01;118.99
584;HTU21D;27024;54.068;12.116;2023-08-30T10:09:25;22.84;118.99
584;HTU21D;27024;54.068;12.116;2023-08-30T10:11:52;23.35;118.99
584;HTU21D;27024;54.068;12.116;2023-08-30T10:14:20;23.25;118.99
584;HTU21D;27024;54.068;12.116;2023-08-30T10:16:48;23.44;118.99
584;HTU21D;27024;54.068;12.116;2023-08-30T10:19:49;23.41;118.99
584;HTU21D;27024;54.068;12.116;2023-08-30T10:22:09;23.79;118.99
584;HTU21D;27024;54.068;12.116;2023-08-30T10:24:44;24.30;118.99
584;HTU21D;27024;54.068;12.116;2023-08-30T10:27:30;24.60;118.99
584;HTU21D;27024;54.068;12.116;2023-08-30T10:29:59;24.80;118.99
584;HTU21D;27024;54.068;12.116;2023-08-30T10:32:27;24.71;118.99
584;HTU21D;27024;54.068;12.116;2023-08-30T10:34:54;24.44;118.99
584;HTU21D;27024;54.068;12.116;2023-08-30T10:37:26;24.48;118.99
584;HTU21D;27024;54.068;12.116;2023-08-30T10:39:59;24.36;118.99
584;HTU21D;27024;54.068;12.116;2023-08-30T10:42:26;23.66;118.99
584;HTU21D;27024;54.068;12.116;2023-08-30T10:45:06;23.64;118.99
584;HTU21D;27024;54.068;12.116;2023-08-30T10:47:40;23.42;118.99
584;HTU21D;27024;54.068;12.116;2023-08-30T10:50:11;23.80;118.99
584;HTU21D;27024;54.068;12.116;2023-08-30T10:52:40;23.69;118.99
584;HTU21D;27024;54.068;12.116;2023-08-30T10:55:12;23.41;118.99
584;HTU21D;27024;54.068;12.116;2023-08-30T10:57:44;23.76;118.99
584;HTU21D;27024;54.068;12.116;2023-08-30T11:00:22;23.71;118.99
584;HTU21D;27024;54.068;12.116;2023-08-30T11:02:51;23.60;118.99
584;HTU21D;27024;54.068;12.116;2023-08-30T11:05:24;23.32;118.99
584;HTU21D;27024;54.068;12.116;2023-08-30T11:07:52;23.39;118.99
584;HTU21D;27024;54.068;12.116;2023-08-30T11:10:19;23.14;118.99
584;HTU21D;27024;54.068;12.116;2023-08-30T11:12:47;23.25;118.99
584;HTU21D;27024;54.068;12.116;2023-08-30T11:15:16;23.51;118.99
584;HTU21D;27024;54.068;12.116;2023-08-30T11:17:44;23.08;118.99
584;HTU21D;27024;54.068;12.116;2023-08-30T11:20:15;22.54;118.99
584;HTU21D;27024;54.068;12.116;2023-08-30T11:22:48;23.30;118.99
584;HTU21D;27024;54.068;12.116;2023-08-30T11:25:16;23.98;118.99
584;HTU21D;27024;54.068;12.116;2023-08-30T11:27:43;24.39;118.99
584;HTU21D;27024;54.068;12.116;2023-08-30T11:30:11;24.99;118.99
584;HTU21D;27024;54.068;12.116;2023-08-30T11:32:42;25.19;118.99
584;HTU21D;27024;54.068;12.116;2023-08-30T11:35:12;24.86;118.99
584;HTU21D;27024;54.068;12.116;2023-08-30T11:37:40;24.39;118.99
584;HTU21D;27024;54.068;12.116;2023-08-30T11:40:11;25.04;118.99
584;HTU21D;27024;54.068;12.116;2023-08-30T11:42:38;24.78;118.99
584;HTU21D;27024;54.068;12.116;2023-08-30T11:45:05;24.65;118.99
584;HTU21D;27024;54.068;12.116;2023-08-30T11:47:33;24.15;118.99
584;HTU21D;27024;54.068;12.116;2023-08-30T11:50:01;23.52;118.99
584;HTU21D;27024;54.068;12.116;2023-08-30T11:52:28;23.45;118.99
584;HTU21D;27024;54.068;12.116;2023-08-30T11:54:56;23.15;118.99
584;HTU21D;27024;54.068;12.116;2023-08-30T11:57:23;22.81;118.99
584;HTU21D;27024;54.068;12.116;2023-08-30T11:59:50;22.76;118.99
584;HTU21D;27024;54.068;12.116;2023-08-30T12:02:18;22.55;118.99
584;HTU21D;27024;54.068;12.116;2023-08-30T12:04:46;22.56;118.99
584;HTU21D;27024;54.068;12.116;2023-08-30T12:07:25;22.18;118.99
584;HTU21D;27024;54.068;12.116;2023-08-30T12:10:06;21.94;118.99
584;HTU21D;27024;54.068;12.116;2023-08-30T12:12:34;21.98;118.99
584;HTU21D;27024;54.068;12.116;2023-08-30T12:15:11;21.92;118.99
584;HTU21D;27024;54.068;12.116;2023-08-30T12:17:38;21.79;118.99
584;HTU21D;27024;54.068;12.116;2023-08-30T12:20:05;21.55;118.99
584;HTU21D;27024;54.068;12.116;2023-08-30T12:22:39;21.34;118.99
584;HTU21D;27024;54.068;12.116;2023-08-30T12:25:19;21.07;118.99
584;HTU21D;27024;54.068;12.116;2023-08-30T12:27:47;21.16;118.99
584;HTU21D;27024;54.068;12.116;2023-08-30T12:30:17;21.10;118.99
584;HTU21D;27024;54.068;12.116;2023-08-30T12:32:48;21.04;118.99
584;HTU21D;27024;54.068;12.116;2023-08-30T12:35:15;20.90;118.99
584;HTU21D;27024;54.068;12.116;2023-08-30T12:37:42;20.94;118.99
584;HTU21D;27024;54.068;12.116;2023-08-30T12:40:10;20.99;118.99
584;HTU21D;27024;54.068;12.116;2023-08-30T12:42:37;20.91;118.99
584;HTU21D;27024;54.068;12.116;2023-08-30T12:45:05;20.79;118.99
584;HTU21D;27024;54.068;12.116;2023-08-30T12:47:32;21.16;118.99
584;HTU21D;27024;54.068;12.116;2023-08-30T12:49:59;21.80;118.99
584;HTU21D;27024;54.068;12.116;2023-08-30T12:52:26;22.32;118.99
584;HTU21D;27024;54.068;12.116;2023-08-30T12:54:53;22.28;118.99
584;HTU21D;27024;54.068;12.116;2023-08-30T12:57:20;22.19;118.99
584;HTU21D;27024;54.068;12.116;2023-08-30T12:59:47;22.04;118.99
584;HTU21D;27024;54.068;12.116;2023-08-30T13:02:15;21.77;118.99
584;HTU21D;27024;54.068;12.116;2023-08-30T13:04:42;21.36;118.99
584;HTU21D;27024;54.068;12.116;2023-08-30T13:07:10;21.42;118.99
584;HTU21D;27024;54.068;12.116;2023-08-30T13:09:37;21.40;118.99
584;HTU21D;27024;54.068;12.116;2023-08-30T13:12:04;21.17;118.99
584;HTU21D;27024;54.068;12.116;2023-08-30T13:14:31;20.98;118.99
584;HTU21D;27024;54.068;12.116;2023-08-30T13:16:58;20.83;118.99
584;HTU21D;27024;54.068;12.116;2023-08-30T13:19:24;20.89;118.99
584;HTU21D;27024;54.068;12.116;2023-08-30T13:21:52;20.61;118.99
584;HTU21D;27024;54.068;12.116;2023-08-30T13:24:18;20.54;118.99
584;HTU21D;27024;54.068;12.116;2023-08-30T13:26:45;20.59;118.99
584;HTU21D;27024;54.068;12.116;2023-08-30T13:29:12;20.61;118.99
584;HTU21D;27024;54.068;12.116;2023-08-30T13:31:39;20.68;118.99
584;HTU21D;27024;54.068;12.116;2023-08-30T13:34:06;20.57;118.99
584;HTU21D;27024;54.068;12.116;2023-08-30T13:36:33;20.41;118.99
584;HTU21D;27024;54.068;12.116;2023-08-30T13:39:00;20.41;118.99
584;HTU21D;27024;54.068;12.116;2023-08-30T13:41:27;20.42;118.99
584;HTU21D;27024;54.068;12.116;2023-08-30T13:43:53;20.32;118.99
584;HTU21D;27024;54.068;12.116;2023-08-30T13:46:24;20.30;118.99
584;HTU21D;27024;54.068;12.116;2023-08-30T13:48:51;20.27;118.99
584;HTU21D;27024;54.068;12.116;2023-08-30T13:51:26;20.37;118.99
584;HTU21D;27024;54.068;12.116;2023-08-30T13:53:53;20.27;118.99
584;HTU21D;27024;54.068;12.116;2023-08-30T13:56:20;20.40;118.99
584;HTU21D;27024;54.068;12.116;2023-08-30T13:58:47;20.06;118.99
584;HTU21D;27024;54.068;12.116;2023-08-30T14:01:14;20.16;118.99
584;HTU21D;27024;54.068;12.116;2023-08-30T14:03:41;20.07;118.99
584;HTU21D;27024;54.068;12.116;2023-08-30T14:06:08;20.13;118.99
584;HTU21D;27024;54.068;12.116;2023-08-30T14:08:36;20.01;118.99
584;HTU21D;27024;54.068;12.116;2023-08-30T14:11:06;19.97;118.99
584;HTU21D;27024;54.068;12.116;2023-08-30T14:13:33;19.95;118.99
584;HTU21D;27024;54.068;12.116;2023-08-30T14:16:03;19.62;118.99
584;HTU21D;27024;54.068;12.116;2023-08-30T14:18:31;19.40;118.99
584;HTU21D;27024;54.068;12.116;2023-08-30T14:20:59;19.30;118.99
584;HTU21D;27024;54.068;12.116;2023-08-30T14:23:26;18.96;118.99
584;HTU21D;27024;54.068;12.116;2023-08-30T14:25:57;19.01;118.99
584;HTU21D;27024;54.068;12.116;2023-08-30T14:28:25;19.09;118.99
584;HTU21D;27024;54.068;12.116;2023-08-30T14:30:52;19.18;118.99
584;HTU21D;27024;54.068;12.116;2023-08-30T14:33:20;19.31;118.99
584;HTU21D;27024;54.068;12.116;2023-08-30T14:35:47;19.35;118.99
584;HTU21D;27024;54.068;12.116;2023-08-30T14:38:14;19.13;118.99
584;HTU21D;27024;54.068;12.116;2023-08-30T14:40:41;19.33;118.99
584;HTU21D;27024;54.068;12.116;2023-08-30T14:43:08;19.42;118.99
584;HTU21D;27024;54.068;12.116;2023-08-30T14:45:35;19.65;118.99
584;HTU21D;27024;54.068;12.116;2023-08-30T14:48:02;19.76;118.99
584;HTU21D;27024;54.068;12.116;2023-08-30T14:50:29;19.94;118.99
584;HTU21D;27024;54.068;12.116;2023-08-30T14:52:56;20.00;118.99
584;HTU21D;27024;54.068;12.116;2023-08-30T14:55:23;20.29;118.99
584;HTU21D;27024;54.068;12.116;2023-08-30T14:57:51;20.22;118.99
584;HTU21D;27024;54.068;12.116;2023-08-30T15:00:18;20.42;118.99
584;HTU21D;27024;54.068;12.116;2023-08-30T15:02:45;20.70;118.99
584;HTU21D;27024;54.068;12.116;2023-08-30T15:05:13;20.63;118.99
584;HTU21D;27024;54.068;12.116;2023-08-30T15:07:40;20.80;118.99
584;HTU21D;27024;54.068;12.116;2023-08-30T15:10:07;20.80;118.99
584;HTU21D;27024;54.068;12.116;2023-08-30T15:12:34;20.91;118.99
584;HTU21D;27024;54.068;12.116;2023-08-30T15:15:01;21.04;118.99
584;HTU21D;27024;54.068;12.116;2023-08-30T15:17:28;21.07;118.99
584;HTU21D;27024;54.068;12.116;2023-08-30T15:19:55;21.02;118.99
584;HTU21D;27024;54.068;12.116;2023-08-30T15:22:22;21.03;118.99
584;HTU21D;27024;54.068;12.116;2023-08-30T15:24:48;20.81;118.99